Time;durP1;ratioP1;P1;durP2;ratioP2;P2;SDS_P1;SDS_P2;PMS_P1;PMS_P2;Temp;Humidity;BMP_temperature;BMP_pressure;BME280_temperature;BME280_humidity;BME280_pressure;Samples;Min_cycle;Max_cycle;Signal;HPM_P1;HPM_P2
2022/01/27 00:02:11;;;;;;;;;;;0.50;91.40;;;;;;5032650;28;19920;-86
2022/01/27 00:04:46;;;;;;;;;;;0.50;91.60;;;;;;5034202;28;19923;-86
2022/01/27 00:07:12;;;;;;;;;;;0.40;91.90;;;;;;5034046;28;19921;-87
2022/01/27 00:12:03;;;;;;;;;;;0.50;92.20;;;;;;5033339;28;19913;-87
2022/01/27 00:14:29;;;;;;;;;;;0.50;92.30;;;;;;5034023;28;19917;-86
2022/01/27 00:16:57;;;;;;;;;;;0.60;92.40;;;;;;5033942;28;19917;-86
2022/01/27 00:19:23;;;;;;;;;;;0.60;92.40;;;;;;5033787;28;19913;-87
2022/01/27 00:21:49;;;;;;;;;;;0.50;92.40;;;;;;5034607;28;19963;-87
2022/01/27 00:24:15;;;;;;;;;;;0.50;92.30;;;;;;5034117;28;19913;-86
2022/01/27 00:26:40;;;;;;;;;;;0.50;92.00;;;;;;5034063;28;19923;-86
2022/01/27 00:29:06;;;;;;;;;;;0.50;91.70;;;;;;5033651;28;19917;-87
2022/01/27 00:31:31;;;;;;;;;;;0.50;91.90;;;;;;5033654;28;20358;-86
2022/01/27 00:33:58;;;;;;;;;;;0.50;91.60;;;;;;5032511;28;20442;-86
2022/01/27 00:36:23;;;;;;;;;;;0.40;91.40;;;;;;5034464;28;19963;-87
2022/01/27 00:38:49;;;;;;;;;;;0.30;91.90;;;;;;5033506;28;19913;-86
2022/01/27 00:41:19;;;;;;;;;;;0.30;92.00;;;;;;5032580;28;19920;-86
2022/01/27 00:43:45;;;;;;;;;;;0.30;91.80;;;;;;5033805;28;20036;-86
2022/01/27 00:46:15;;;;;;;;;;;0.20;91.60;;;;;;5033332;28;20098;-86
2022/01/27 00:48:41;;;;;;;;;;;0.20;91.70;;;;;;5033230;28;20094;-86
2022/01/27 00:51:09;;;;;;;;;;;0.30;92.10;;;;;;5033142;28;19913;-87
2022/01/27 00:53:49;;;;;;;;;;;0.30;92.40;;;;;;5033281;28;20371;-87
2022/01/27 00:56:23;;;;;;;;;;;0.40;93.00;;;;;;5034035;28;20015;-86
2022/01/27 01:01:17;;;;;;;;;;;0.70;93.00;;;;;;5033387;28;20351;-87
2022/01/27 01:03:46;;;;;;;;;;;0.80;92.90;;;;;;5033017;28;19913;-86
2022/01/27 01:06:35;;;;;;;;;;;0.80;92.40;;;;;;5032785;28;19917;-86
2022/01/27 01:09:48;;;;;;;;;;;0.80;92.20;;;;;;5032366;28;19971;-86
2022/01/27 01:13:06;;;;;;;;;;;0.70;92.00;;;;;;5031024;28;19953;-86
2022/01/27 01:14:48;;;;;;;;;;;0.70;91.70;;;;;;5026179;28;19913;-86
2022/01/27 01:30:45;;;;;;;;;;;1.00;92.40;;;;;;5013731;28;19979;-87
2022/01/27 01:33:12;;;;;;;;;;;1.10;92.40;;;;;;5018121;28;19913;-87
2022/01/27 01:35:48;;;;;;;;;;;0.90;91.50;;;;;;5031428;28;19972;-87
2022/01/27 01:38:17;;;;;;;;;;;0.80;91.10;;;;;;5032502;28;19919;-86
2022/01/27 01:40:43;;;;;;;;;;;0.60;90.30;;;;;;5031689;28;20074;-86
2022/01/27 01:43:08;;;;;;;;;;;0.30;90.30;;;;;;5032300;28;20426;-86
2022/01/27 01:45:35;;;;;;;;;;;0.30;90.80;;;;;;5042290;22;19916;-86
2022/01/27 01:48:00;;;;;;;;;;;0.20;90.90;;;;;;5052203;28;19963;-86
2022/01/27 01:50:26;;;;;;;;;;;0.10;91.30;;;;;;5052864;28;20001;-87
2022/01/27 01:52:52;;;;;;;;;;;0.20;91.60;;;;;;5051496;28;19935;-86
2022/01/27 01:55:18;;;;;;;;;;;0.20;91.90;;;;;;5052325;28;19909;-86
2022/01/27 01:57:44;;;;;;;;;;;0.20;91.90;;;;;;5052102;28;19913;-86
2022/01/27 02:00:11;;;;;;;;;;;0.30;91.60;;;;;;5052982;28;20007;-86
2022/01/27 02:02:37;;;;;;;;;;;0.30;91.50;;;;;;5051753;28;19920;-86
2022/01/27 02:05:02;;;;;;;;;;;0.30;91.70;;;;;;5051042;28;19916;-86
2022/01/27 02:07:56;;;;;;;;;;;0.40;91.80;;;;;;5051895;28;19917;-86
2022/01/27 02:10:40;;;;;;;;;;;0.60;91.90;;;;;;5051967;28;19959;-86
2022/01/27 02:18:38;;;;;;;;;;;0.90;91.90;;;;;;5050802;28;19919;-87
2022/01/27 02:21:03;;;;;;;;;;;0.90;91.50;;;;;;5055047;28;19924;-86
2022/01/27 02:23:29;;;;;;;;;;;0.90;91.50;;;;;;5055829;28;19912;-86
2022/01/27 02:25:54;;;;;;;;;;;1.00;91.80;;;;;;5055938;28;19916;-86
2022/01/27 02:28:20;;;;;;;;;;;1.00;91.60;;;;;;5054733;28;20378;-86
2022/01/27 02:30:46;;;;;;;;;;;1.10;91.90;;;;;;5054158;28;20432;-86
2022/01/27 02:33:11;;;;;;;;;;;1.20;91.90;;;;;;5052199;28;19923;-85
2022/01/27 02:35:37;;;;;;;;;;;1.00;90.50;;;;;;5053443;28;19909;-86
2022/01/27 02:38:03;;;;;;;;;;;0.80;90.50;;;;;;5054811;28;20378;-85
2022/01/27 02:40:34;;;;;;;;;;;0.40;89.90;;;;;;5055654;28;20270;-86
2022/01/27 02:43:01;;;;;;;;;;;0.20;90.50;;;;;;5055430;28;19948;-86
2022/01/27 02:45:32;;;;;;;;;;;0.20;91.60;;;;;;5055407;28;19909;-86
2022/01/27 02:47:57;;;;;;;;;;;0.40;91.90;;;;;;5059181;28;19917;-86
2022/01/27 02:50:23;;;;;;;;;;;0.20;91.60;;;;;;5076350;28;19915;-86
2022/01/27 02:52:49;;;;;;;;;;;0.00;91.80;;;;;;5066228;28;19908;-86
2022/01/27 02:55:14;;;;;;;;;;;0.00;92.10;;;;;;5055333;28;19913;-86
2022/01/27 02:57:40;;;;;;;;;;;0.00;92.30;;;;;;5055145;28;19916;-86
2022/01/27 03:00:06;;;;;;;;;;;0.00;92.50;;;;;;5056161;28;19916;-86
2022/01/27 03:02:34;;;;;;;;;;;0.00;92.60;;;;;;5055097;28;19917;-86
2022/01/27 03:04:59;;;;;;;;;;;0.10;93.00;;;;;;5054137;28;19935;-86
2022/01/27 03:07:25;;;;;;;;;;;0.20;93.10;;;;;;5054717;28;20275;-86
2022/01/27 03:09:51;;;;;;;;;;;0.30;93.20;;;;;;5052970;28;20469;-87
2022/01/27 03:12:18;;;;;;;;;;;0.40;93.20;;;;;;5054791;28;19921;-86
2022/01/27 03:14:43;;;;;;;;;;;0.60;93.20;;;;;;5055134;28;19935;-86
2022/01/27 03:17:09;;;;;;;;;;;0.70;93.00;;;;;;5053525;28;20359;-86
2022/01/27 03:19:36;;;;;;;;;;;0.70;92.00;;;;;;5054063;28;19951;-86
2022/01/27 03:22:03;;;;;;;;;;;0.50;91.90;;;;;;5036907;28;20004;-86
2022/01/27 03:24:29;;;;;;;;;;;0.50;92.20;;;;;;5055602;28;20351;-86
2022/01/27 03:26:55;;;;;;;;;;;0.50;92.00;;;;;;5053779;28;19920;-86
2022/01/27 03:29:21;;;;;;;;;;;0.20;91.60;;;;;;5054409;28;19943;-86
2022/01/27 03:31:47;;;;;;;;;;;0.00;91.50;;;;;;5053662;28;20359;-86
2022/01/27 03:34:14;;;;;;;;;;;0.00;91.80;;;;;;5055207;28;20346;-86
2022/01/27 03:36:39;;;;;;;;;;;0.00;92.10;;;;;;5053283;28;19960;-86
2022/01/27 03:39:05;;;;;;;;;;;0.00;92.00;;;;;;5054626;28;19955;-86
2022/01/27 03:41:35;;;;;;;;;;;-3276.60;91.80;;;;;;5055439;28;20331;-86
2022/01/27 03:44:00;;;;;;;;;;;-3276.60;91.90;;;;;;5056050;28;19912;-86
2022/01/27 03:46:26;;;;;;;;;;;-3276.60;92.10;;;;;;5075153;28;19927;-86
2022/01/27 03:48:51;;;;;;;;;;;-3276.70;92.40;;;;;;5061908;28;19964;-86
2022/01/27 03:51:17;;;;;;;;;;;0.00;92.50;;;;;;5054206;28;20271;-86
2022/01/27 03:53:43;;;;;;;;;;;0.10;92.10;;;;;;5053312;28;19940;-86
2022/01/27 03:56:08;;;;;;;;;;;0.10;91.60;;;;;;5054285;28;19960;-86
2022/01/27 03:58:34;;;;;;;;;;;0.00;91.40;;;;;;5054288;28;19938;-86
2022/01/27 04:01:03;;;;;;;;;;;-3276.70;91.60;;;;;;5054483;28;19913;-86
2022/01/27 04:03:31;;;;;;;;;;;-3276.70;91.60;;;;;;5053821;28;20003;-86
2022/01/27 04:06:03;;;;;;;;;;;-3276.70;91.70;;;;;;5054051;28;19952;-86
2022/01/27 04:08:29;;;;;;;;;;;-3276.60;91.80;;;;;;5051727;28;19924;-86
2022/01/27 04:10:54;;;;;;;;;;;-3276.50;92.10;;;;;;5053841;28;20282;-86
2022/01/27 04:13:20;;;;;;;;;;;-3276.60;92.40;;;;;;5054034;28;20363;-86
2022/01/27 04:15:46;;;;;;;;;;;-3276.70;92.50;;;;;;5052800;28;19936;-86
2022/01/27 04:18:12;;;;;;;;;;;0.00;92.50;;;;;;5053661;28;20004;-86
2022/01/27 04:20:38;;;;;;;;;;;0.00;92.40;;;;;;5062152;28;19909;-86
2022/01/27 04:23:04;;;;;;;;;;;0.00;92.30;;;;;;5053822;28;19913;-86
2022/01/27 04:25:29;;;;;;;;;;;0.10;92.20;;;;;;5052139;28;19913;-86
2022/01/27 04:28:00;;;;;;;;;;;0.20;92.10;;;;;;5052921;28;19916;-86
2022/01/27 04:30:26;;;;;;;;;;;0.20;91.60;;;;;;5054774;28;20005;-86
2022/01/27 04:32:56;;;;;;;;;;;0.10;91.00;;;;;;5053732;28;19978;-86
2022/01/27 04:35:24;;;;;;;;;;;0.00;90.50;;;;;;5053247;28;19960;-86
2022/01/27 04:48:26;;;;;;;;;;;-3276.00;91.00;;;;;;5053230;28;19917;-86
2022/01/27 04:50:53;;;;;;;;;;;-3275.90;91.50;;;;;;5052840;28;20378;-86
2022/01/27 04:53:29;;;;;;;;;;;-3276.00;91.90;;;;;;5052047;28;20404;-86
2022/01/27 04:55:57;;;;;;;;;;;-3276.20;92.20;;;;;;5052980;28;20047;-86
2022/01/27 04:58:30;;;;;;;;;;;-3276.30;92.00;;;;;;5052074;28;20463;-86
2022/01/27 05:00:58;;;;;;;;;;;-3276.20;91.50;;;;;;5052645;28;20373;-86
2022/01/27 05:03:35;;;;;;;;;;;-3276.20;91.80;;;;;;5052977;28;19942;-86
2022/01/27 05:06:01;;;;;;;;;;;-3276.40;92.10;;;;;;5033890;28;20363;-86
2022/01/27 05:08:26;;;;;;;;;;;-3276.40;91.60;;;;;;5049453;28;19920;-86
2022/01/27 05:11:00;;;;;;;;;;;-3276.30;91.50;;;;;;5051849;28;19920;-86
2022/01/27 05:13:28;;;;;;;;;;;-3276.20;91.60;;;;;;5052691;28;20385;-86
2022/01/27 05:15:54;;;;;;;;;;;-3276.20;92.60;;;;;;5053594;28;19913;-86
2022/01/27 05:18:20;;;;;;;;;;;-3276.20;93.00;;;;;;5052416;28;19955;-86
2022/01/27 05:20:46;;;;;;;;;;;-3276.20;93.10;;;;;;5052480;28;19913;-86
2022/01/27 05:23:12;;;;;;;;;;;-3276.10;93.10;;;;;;5052699;28;20008;-86
2022/01/27 05:25:38;;;;;;;;;;;-3276.10;92.90;;;;;;5051821;28;20004;-86
2022/01/27 05:28:04;;;;;;;;;;;-3276.00;92.70;;;;;;5050562;28;20016;-86
2022/01/27 05:30:29;;;;;;;;;;;-3276.00;92.80;;;;;;5053359;28;19931;-86
2022/01/27 05:32:55;;;;;;;;;;;-3276.10;93.10;;;;;;5052488;28;19909;-86
2022/01/27 05:35:20;;;;;;;;;;;-3276.10;93.10;;;;;;5050739;28;19924;-86
2022/01/27 05:37:46;;;;;;;;;;;-3275.90;92.80;;;;;;5050969;28;19961;-87
2022/01/27 05:40:12;;;;;;;;;;;-3275.80;92.70;;;;;;5050681;28;19963;-87
2022/01/27 05:42:37;;;;;;;;;;;-3275.80;93.00;;;;;;5052270;28;20363;-87
2022/01/27 05:45:03;;;;;;;;;;;-3275.80;92.80;;;;;;5066672;28;19912;-87
2022/01/27 05:47:29;;;;;;;;;;;-3275.70;92.80;;;;;;5072405;28;19921;-86
2022/01/27 05:49:54;;;;;;;;;;;-3275.70;92.90;;;;;;5050396;28;19913;-87
2022/01/27 05:52:21;;;;;;;;;;;-3275.60;92.90;;;;;;5051118;28;20003;-87
2022/01/27 05:54:47;;;;;;;;;;;-3275.60;92.90;;;;;;5052955;28;19916;-87
2022/01/27 05:57:13;;;;;;;;;;;-3275.70;93.00;;;;;;5050473;28;20003;-87
2022/01/27 05:59:39;;;;;;;;;;;-3275.60;92.80;;;;;;5051889;28;19913;-86
2022/01/27 06:02:05;;;;;;;;;;;-3275.60;92.80;;;;;;5045680;28;19912;-87
2022/01/27 06:04:31;;;;;;;;;;;-3275.70;93.00;;;;;;5042795;28;20011;-86
2022/01/27 06:06:56;;;;;;;;;;;-3275.70;92.80;;;;;;5049796;28;20524;-87
2022/01/27 06:09:22;;;;;;;;;;;-3275.60;92.60;;;;;;5042562;28;19975;-87
2022/01/27 06:11:48;;;;;;;;;;;-3275.60;92.30;;;;;;5041828;28;19974;-87
2022/01/27 06:14:13;;;;;;;;;;;-3275.60;92.40;;;;;;5044737;28;20389;-87
2022/01/27 06:16:39;;;;;;;;;;;-3275.60;92.30;;;;;;5047360;28;19917;-87
2022/01/27 06:19:06;;;;;;;;;;;-3275.40;92.10;;;;;;5046413;28;19919;-86
2022/01/27 06:21:35;;;;;;;;;;;-3275.40;92.40;;;;;;5043162;28;19978;-87
2022/01/27 06:24:00;;;;;;;;;;;-3275.40;92.50;;;;;;5050890;28;20371;-86
2022/01/27 06:26:28;;;;;;;;;;;-3275.40;92.50;;;;;;5049821;28;19920;-87
2022/01/27 06:28:53;;;;;;;;;;;-3275.40;92.70;;;;;;5047938;28;19962;-87
2022/01/27 06:31:19;;;;;;;;;;;-3275.40;92.90;;;;;;5041106;28;19920;-87
2022/01/27 06:33:44;;;;;;;;;;;-3275.40;93.00;;;;;;5050356;28;19917;-87
2022/01/27 06:36:10;;;;;;;;;;;-3275.40;93.30;;;;;;5044837;28;20373;-87
2022/01/27 06:38:35;;;;;;;;;;;-3275.60;93.40;;;;;;5043906;28;19958;-87
2022/01/27 06:41:01;;;;;;;;;;;-3275.60;93.50;;;;;;5043695;28;20344;-87
2022/01/27 06:43:27;;;;;;;;;;;-3275.60;93.40;;;;;;5047024;28;19983;-87
2022/01/27 06:45:52;;;;;;;;;;;-3275.80;93.50;;;;;;5048938;28;19976;-87
2022/01/27 06:48:18;;;;;;;;;;;-3275.60;93.20;;;;;;5046692;28;20377;-86
2022/01/27 06:50:45;;;;;;;;;;;-3275.60;93.30;;;;;;5049471;28;19912;-87
2022/01/27 06:53:10;;;;;;;;;;;-3275.60;93.40;;;;;;5047310;28;19913;-87
2022/01/27 06:55:38;;;;;;;;;;;-3275.70;93.30;;;;;;5051341;28;19993;-87
2022/01/27 06:58:03;;;;;;;;;;;-3275.80;93.20;;;;;;5045818;28;19920;-87
2022/01/27 07:00:29;;;;;;;;;;;-3275.70;93.20;;;;;;5046158;28;20376;-87
2022/01/27 07:02:54;;;;;;;;;;;-3275.70;93.20;;;;;;5049078;28;19917;-87
2022/01/27 07:05:20;;;;;;;;;;;-3275.70;93.00;;;;;;5051606;28;20272;-87
2022/01/27 07:07:46;;;;;;;;;;;-3275.70;92.80;;;;;;5057429;28;19931;-88
2022/01/27 07:10:11;;;;;;;;;;;-3275.80;93.10;;;;;;5054766;28;19921;-86
2022/01/27 07:12:40;;;;;;;;;;;-3275.90;93.20;;;;;;5053615;28;20007;-86
2022/01/27 07:15:07;;;;;;;;;;;-3276.10;93.30;;;;;;5051975;28;19913;-86
2022/01/27 07:17:32;;;;;;;;;;;-3276.00;93.30;;;;;;5049380;28;20035;-86
2022/01/27 07:19:58;;;;;;;;;;;-3275.90;93.70;;;;;;5059026;28;20422;-86
2022/01/27 07:22:23;;;;;;;;;;;-3275.90;93.90;;;;;;5059044;28;20323;-86
2022/01/27 07:24:49;;;;;;;;;;;-3276.00;93.90;;;;;;5052556;28;20390;-86
2022/01/27 07:27:14;;;;;;;;;;;-3276.10;94.00;;;;;;5055620;28;19913;-86
2022/01/27 07:29:40;;;;;;;;;;;-3276.10;94.00;;;;;;5051705;28;19912;-86
2022/01/27 07:32:06;;;;;;;;;;;-3276.30;94.10;;;;;;5049636;28;19959;-86
2022/01/27 07:34:31;;;;;;;;;;;-3276.20;94.10;;;;;;5052140;28;19919;-86
2022/01/27 07:37:00;;;;;;;;;;;-3276.20;94.30;;;;;;5049897;28;19912;-86
2022/01/27 07:39:26;;;;;;;;;;;-3276.30;94.40;;;;;;5053159;28;19912;-86
2022/01/27 07:41:51;;;;;;;;;;;-3276.30;94.40;;;;;;5051149;28;19979;-87
2022/01/27 07:44:17;;;;;;;;;;;-3276.40;94.50;;;;;;5049241;28;20338;-86
2022/01/27 07:46:42;;;;;;;;;;;-3276.40;94.60;;;;;;5051498;28;19921;-86
2022/01/27 07:49:08;;;;;;;;;;;-3276.50;94.70;;;;;;5056720;28;19917;-86
2022/01/27 07:51:34;;;;;;;;;;;-3276.50;94.80;;;;;;5047305;28;19917;-86
2022/01/27 07:53:59;;;;;;;;;;;-3276.40;94.70;;;;;;5053791;28;19913;-86
2022/01/27 07:56:26;;;;;;;;;;;-3276.60;94.80;;;;;;5050587;28;20003;-87
2022/01/27 07:58:52;;;;;;;;;;;-3276.60;94.80;;;;;;5046797;28;19917;-87
2022/01/27 08:01:18;;;;;;;;;;;0.00;94.90;;;;;;5053090;28;20278;-86
2022/01/27 08:03:43;;;;;;;;;;;0.00;94.80;;;;;;5048760;28;20611;-87
2022/01/27 08:06:09;;;;;;;;;;;0.10;94.80;;;;;;5050387;28;19920;-87
2022/01/27 08:08:34;;;;;;;;;;;0.10;94.70;;;;;;5048151;28;20484;-87
2022/01/27 08:11:00;;;;;;;;;;;0.20;94.70;;;;;;5047516;28;20290;-87
2022/01/27 08:13:26;;;;;;;;;;;0.40;94.70;;;;;;5051363;28;19925;-87
2022/01/27 08:15:52;;;;;;;;;;;0.40;94.40;;;;;;5050143;28;19913;-87
2022/01/27 08:18:17;;;;;;;;;;;0.40;94.20;;;;;;5048757;28;19957;-86
2022/01/27 08:20:44;;;;;;;;;;;0.20;93.80;;;;;;5050252;28;19913;-87
2022/01/27 08:23:13;;;;;;;;;;;0.00;93.50;;;;;;5049019;28;19936;-87
2022/01/27 08:25:38;;;;;;;;;;;-3276.70;93.80;;;;;;5046242;28;19923;-86
2022/01/27 08:28:05;;;;;;;;;;;-3276.60;94.20;;;;;;5049278;28;20298;-86
2022/01/27 08:30:38;;;;;;;;;;;-3276.60;94.40;;;;;;5045211;28;19913;-86
2022/01/27 08:33:05;;;;;;;;;;;-3276.70;94.60;;;;;;5049461;28;19963;-87
2022/01/27 08:35:31;;;;;;;;;;;-3276.70;94.80;;;;;;5046210;28;19913;-87
2022/01/27 08:37:57;;;;;;;;;;;0.00;94.90;;;;;;5049599;28;19921;-87
2022/01/27 08:40:22;;;;;;;;;;;0.00;95.00;;;;;;5049928;28;19977;-86
2022/01/27 08:42:48;;;;;;;;;;;0.10;95.10;;;;;;5048206;28;20051;-87
2022/01/27 08:45:15;;;;;;;;;;;0.10;95.10;;;;;;5049342;28;19919;-86
2022/01/27 08:47:41;;;;;;;;;;;0.20;95.10;;;;;;5043312;28;19928;-86
2022/01/27 08:50:09;;;;;;;;;;;0.20;95.00;;;;;;5046322;28;20470;-86
2022/01/27 08:52:35;;;;;;;;;;;0.30;95.00;;;;;;5046679;28;20811;-86
2022/01/27 08:55:00;;;;;;;;;;;0.40;94.90;;;;;;5048700;28;19920;-86
2022/01/27 08:57:26;;;;;;;;;;;0.50;94.90;;;;;;5051185;28;19917;-86
2022/01/27 08:59:53;;;;;;;;;;;0.60;94.80;;;;;;5044728;28;20287;-86
2022/01/27 09:02:20;;;;;;;;;;;0.60;94.60;;;;;;5044515;28;19913;-87
2022/01/27 09:06:14;;;;;;;;;;;0.70;94.50;;;;;;5112194;27;19916;-87
2022/01/27 09:08:40;;;;;;;;;;;0.90;94.20;;;;;;5098628;28;19922;-87
2022/01/27 09:11:05;;;;;;;;;;;0.90;93.70;;;;;;5108270;28;20396;-87
2022/01/27 09:13:31;;;;;;;;;;;1.00;93.50;;;;;;5102125;28;19912;-87
2022/01/27 09:15:59;;;;;;;;;;;1.10;93.50;;;;;;5116319;28;19912;-87
2022/01/27 09:18:25;;;;;;;;;;;1.10;93.30;;;;;;5105575;28;19962;-87
2022/01/27 09:20:50;;;;;;;;;;;1.20;93.20;;;;;;5112872;28;19959;-87
2022/01/27 09:23:16;;;;;;;;;;;1.20;92.90;;;;;;5109610;28;19966;-87
2022/01/27 09:25:45;;;;;;;;;;;1.30;92.70;;;;;;5112416;28;20377;-87
2022/01/27 09:28:11;;;;;;;;;;;1.30;92.40;;;;;;5112067;28;20018;-87
2022/01/27 09:30:37;;;;;;;;;;;1.40;92.50;;;;;;5105461;28;19927;-86
2022/01/27 09:33:03;;;;;;;;;;;1.50;92.20;;;;;;5111207;28;19999;-86
2022/01/27 09:35:30;;;;;;;;;;;1.60;92.10;;;;;;5106280;28;19920;-87
2022/01/27 09:37:56;;;;;;;;;;;1.80;92.00;;;;;;5110036;28;19916;-87
2022/01/27 09:40:22;;;;;;;;;;;1.90;91.90;;;;;;5101772;28;19994;-87
2022/01/27 09:42:51;;;;;;;;;;;2.00;91.60;;;;;;5109270;28;20047;-86
2022/01/27 09:45:17;;;;;;;;;;;2.20;91.40;;;;;;5110404;28;19916;-87
2022/01/27 09:47:43;;;;;;;;;;;2.40;91.00;;;;;;5107116;28;20365;-87
2022/01/27 09:50:26;;;;;;;;;;;2.50;90.70;;;;;;5115858;28;20291;-87
2022/01/27 09:52:51;;;;;;;;;;;2.50;90.00;;;;;;5110769;28;20002;-86
2022/01/27 09:55:17;;;;;;;;;;;2.40;89.90;;;;;;5110403;28;20397;-87
2022/01/27 09:57:43;;;;;;;;;;;2.40;89.80;;;;;;5110408;28;19920;-87
2022/01/27 10:00:08;;;;;;;;;;;2.30;90.10;;;;;;5108849;28;19911;-87
2022/01/27 10:02:34;;;;;;;;;;;2.40;90.50;;;;;;5111970;28;19919;-86
2022/01/27 10:05:00;;;;;;;;;;;2.40;90.60;;;;;;5105619;28;20054;-87
2022/01/27 10:07:35;;;;;;;;;;;2.50;90.40;;;;;;5107206;28;20385;-87
2022/01/27 10:10:03;;;;;;;;;;;2.50;90.30;;;;;;5110442;28;19919;-87
2022/01/27 10:12:31;;;;;;;;;;;2.50;90.50;;;;;;5108412;28;19964;-87
2022/01/27 10:15:01;;;;;;;;;;;2.50;90.60;;;;;;5104688;28;19912;-87
2022/01/27 10:17:29;;;;;;;;;;;2.50;90.50;;;;;;5106026;28;19913;-86
2022/01/27 10:19:55;;;;;;;;;;;2.70;90.80;;;;;;5114451;27;20381;-86
2022/01/27 10:22:20;;;;;;;;;;;2.90;90.80;;;;;;5095592;28;19926;-87
2022/01/27 10:24:58;;;;;;;;;;;3.00;90.60;;;;;;5095290;28;20421;-87
2022/01/27 10:27:46;;;;;;;;;;;3.10;90.50;;;;;;5079790;28;19912;-87
2022/01/27 10:32:48;;;;;;;;;;;3.40;89.50;;;;;;5097004;28;19919;-87
2022/01/27 10:35:15;;;;;;;;;;;3.60;89.20;;;;;;5093217;28;20150;-87
2022/01/27 10:37:59;;;;;;;;;;;3.60;88.10;;;;;;5088135;28;19920;-87
2022/01/27 10:40:27;;;;;;;;;;;3.40;88.30;;;;;;5086008;28;19920;-87
2022/01/27 10:43:01;;;;;;;;;;;3.40;88.50;;;;;;5087561;28;19912;-86
2022/01/27 10:45:26;;;;;;;;;;;3.30;88.80;;;;;;5085809;28;19924;-87
2022/01/27 10:48:05;;;;;;;;;;;3.20;89.50;;;;;;5089154;28;19923;-87
2022/01/27 10:50:31;;;;;;;;;;;3.20;89.60;;;;;;5088445;28;19920;-87
2022/01/27 10:53:03;;;;;;;;;;;3.20;89.80;;;;;;5084404;28;19912;-87
2022/01/27 10:55:29;;;;;;;;;;;3.20;89.60;;;;;;5085040;28;19919;-87
2022/01/27 10:57:54;;;;;;;;;;;3.20;89.90;;;;;;5091625;28;19919;-87
2022/01/27 11:00:21;;;;;;;;;;;3.30;90.00;;;;;;5092846;28;19920;-86
2022/01/27 11:02:51;;;;;;;;;;;3.40;90.10;;;;;;5102705;28;19985;-87
2022/01/27 11:05:27;;;;;;;;;;;3.70;89.70;;;;;;5093998;28;20492;-87
2022/01/27 11:07:54;;;;;;;;;;;3.90;89.30;;;;;;5093464;28;20157;-87
2022/01/27 11:10:20;;;;;;;;;;;4.00;88.90;;;;;;5100440;28;19912;-87
2022/01/27 11:12:46;;;;;;;;;;;4.20;88.50;;;;;;5095204;28;19908;-87
2022/01/27 11:15:13;;;;;;;;;;;4.30;88.20;;;;;;5094242;28;19908;-87
2022/01/27 11:17:40;;;;;;;;;;;4.40;87.30;;;;;;5093798;28;19965;-86
2022/01/27 11:25:51;;;;;;;;;;;4.00;88.10;;;;;;5073976;28;19971;-87
2022/01/27 11:28:05;;;;;;;;;;;4.10;88.00;;;;;;5074399;28;19966;-87
2022/01/27 11:30:34;;;;;;;;;;;4.20;88.20;;;;;;5075761;28;19921;-86
2022/01/27 11:33:03;;;;;;;;;;;4.10;88.10;;;;;;5073189;28;20015;-86
2022/01/27 11:35:29;;;;;;;;;;;4.00;88.50;;;;;;5075670;28;19966;-87
2022/01/27 11:37:56;;;;;;;;;;;3.90;88.70;;;;;;5074578;28;19932;-87
2022/01/27 11:40:23;;;;;;;;;;;4.00;89.40;;;;;;5075357;28;19966;-86
2022/01/27 11:42:54;;;;;;;;;;;4.10;89.50;;;;;;5078032;28;19920;-87
2022/01/27 11:45:22;;;;;;;;;;;4.30;89.30;;;;;;5078037;28;19967;-87
2022/01/27 11:47:51;;;;;;;;;;;4.50;89.10;;;;;;5073777;28;19916;-87
2022/01/27 11:50:48;;;;;;;;;;;4.60;88.30;;;;;;5090366;28;19918;-86
2022/01/27 11:53:34;;;;;;;;;;;4.60;88.20;;;;;;5081539;28;19933;-87
2022/01/27 11:56:04;;;;;;;;;;;4.70;88.40;;;;;;5099214;28;19916;-87
2022/01/27 11:58:30;;;;;;;;;;;4.90;88.10;;;;;;5085949;28;19912;-86
2022/01/27 12:01:04;;;;;;;;;;;4.90;87.40;;;;;;5089955;28;19970;-86
2022/01/27 12:03:30;;;;;;;;;;;4.70;87.50;;;;;;5090115;28;19919;-86
2022/01/27 12:06:15;;;;;;;;;;;4.70;88.60;;;;;;5074964;28;19920;-86
2022/01/27 12:08:41;;;;;;;;;;;4.50;88.90;;;;;;5074677;28;19916;-86
2022/01/27 12:11:10;;;;;;;;;;;4.60;89.10;;;;;;5076210;28;20382;-86
2022/01/27 12:16:36;;;;;;;;;;;4.70;88.70;;;;;;5083584;28;19912;-86
2022/01/27 12:20:15;;;;;;;;;;;4.90;88.40;;;;;;5110438;27;19946;-86
2022/01/27 12:22:50;;;;;;;;;;;5.00;87.90;;;;;;5109216;28;20134;-86
2022/01/27 12:25:16;;;;;;;;;;;5.10;87.30;;;;;;5102691;28;19912;-86
2022/01/27 12:27:52;;;;;;;;;;;5.20;87.00;;;;;;5097139;28;19916;-86
2022/01/27 12:30:18;;;;;;;;;;;5.30;86.70;;;;;;5083170;28;20388;-86
2022/01/27 12:32:43;;;;;;;;;;;5.20;86.00;;;;;;5099606;28;19909;-87
2022/01/27 12:35:15;;;;;;;;;;;5.20;86.40;;;;;;5101227;28;19932;-86
2022/01/27 12:37:42;;;;;;;;;;;5.00;85.90;;;;;;5091226;28;20366;-86
2022/01/27 12:40:09;;;;;;;;;;;5.20;86.00;;;;;;5095369;28;19974;-86
2022/01/27 12:42:37;;;;;;;;;;;5.20;86.30;;;;;;5094772;28;20015;-86
2022/01/27 12:45:10;;;;;;;;;;;5.20;86.10;;;;;;5090780;28;19963;-86
2022/01/27 12:47:40;;;;;;;;;;;5.30;86.30;;;;;;5092365;28;19925;-87
2022/01/27 12:50:09;;;;;;;;;;;5.50;86.30;;;;;;5091843;28;19991;-87
2022/01/27 12:52:41;;;;;;;;;;;5.70;85.40;;;;;;5091330;28;19912;-87
2022/01/27 12:55:08;;;;;;;;;;;5.90;84.50;;;;;;5090615;28;19923;-87
2022/01/27 12:57:34;;;;;;;;;;;6.00;83.90;;;;;;5093431;28;19943;-87
2022/01/27 13:00:00;;;;;;;;;;;6.10;83.90;;;;;;5091058;28;20381;-87
2022/01/27 13:02:27;;;;;;;;;;;6.40;83.30;;;;;;5088292;28;19922;-87
2022/01/27 13:04:54;;;;;;;;;;;6.40;82.80;;;;;;5087741;28;20066;-86
2022/01/27 13:07:21;;;;;;;;;;;6.40;82.50;;;;;;5090158;28;19918;-86
2022/01/27 13:09:57;;;;;;;;;;;6.40;82.00;;;;;;5088286;28;19978;-86
2022/01/27 13:12:28;;;;;;;;;;;6.00;82.10;;;;;;5086461;28;19917;-86
2022/01/27 13:15:06;;;;;;;;;;;5.80;82.80;;;;;;5084763;28;19921;-86
2022/01/27 13:17:42;;;;;;;;;;;5.90;83.30;;;;;;5086470;28;19920;-86
2022/01/27 13:20:10;;;;;;;;;;;6.10;83.30;;;;;;5081562;28;19978;-86
2022/01/27 13:22:46;;;;;;;;;;;6.10;83.40;;;;;;5084690;28;19974;-87
2022/01/27 13:25:11;;;;;;;;;;;6.20;83.20;;;;;;5084691;28;19912;-86
2022/01/27 13:27:37;;;;;;;;;;;6.40;82.60;;;;;;5085478;28;20387;-86
2022/01/27 13:30:03;;;;;;;;;;;6.60;81.80;;;;;;5084792;28;19917;-87
2022/01/27 13:32:29;;;;;;;;;;;6.80;81.00;;;;;;5073024;28;19931;-87
2022/01/27 13:34:54;;;;;;;;;;;6.80;80.70;;;;;;5072576;28;19919;-87
2022/01/27 13:37:26;;;;;;;;;;;6.90;80.60;;;;;;5074400;28;19913;-87
2022/01/27 13:42:18;;;;;;;;;;;6.60;79.80;;;;;;5073980;28;19918;-86
2022/01/27 13:44:53;;;;;;;;;;;6.40;80.50;;;;;;5073335;28;20390;-86
2022/01/27 13:47:30;;;;;;;;;;;6.30;81.30;;;;;;5073220;28;19920;-86
2022/01/27 13:50:12;;;;;;;;;;;6.20;81.80;;;;;;5072033;28;19926;-86
2022/01/27 13:52:39;;;;;;;;;;;5.90;82.60;;;;;;5073372;28;19920;-86
2022/01/27 13:55:09;;;;;;;;;;;5.80;83.00;;;;;;5074010;28;19913;-86
2022/01/27 13:57:36;;;;;;;;;;;5.80;83.00;;;;;;5072299;28;19916;-86
2022/01/27 14:00:10;;;;;;;;;;;5.80;83.40;;;;;;5073293;28;19920;-86
2022/01/27 14:02:38;;;;;;;;;;;5.90;83.60;;;;;;5074625;28;19966;-87
2022/01/27 14:05:17;;;;;;;;;;;6.00;83.30;;;;;;5072421;28;19921;-87
2022/01/27 14:08:00;;;;;;;;;;;6.20;83.20;;;;;;5071546;28;19934;-87
2022/01/27 14:10:37;;;;;;;;;;;6.40;82.30;;;;;;5072835;28;19993;-86
2022/01/27 14:13:06;;;;;;;;;;;6.60;81.40;;;;;;5076613;28;19919;-87
2022/01/27 14:15:33;;;;;;;;;;;6.70;81.10;;;;;;5067325;28;19920;-86
2022/01/27 14:18:07;;;;;;;;;;;6.70;79.70;;;;;;5069586;28;19913;-86
2022/01/27 14:20:32;;;;;;;;;;;6.60;80.30;;;;;;5070513;28;19913;-86
2022/01/27 14:23:14;;;;;;;;;;;6.30;80.70;;;;;;5071601;28;19913;-86
2022/01/27 14:25:46;;;;;;;;;;;6.20;81.50;;;;;;5072392;28;19912;-86
2022/01/27 14:28:11;;;;;;;;;;;6.10;81.40;;;;;;5075004;28;19908;-86
2022/01/27 14:30:38;;;;;;;;;;;6.00;81.60;;;;;;5070896;28;19912;-86
2022/01/27 14:33:03;;;;;;;;;;;6.00;82.10;;;;;;5070081;28;20385;-86
2022/01/27 14:35:29;;;;;;;;;;;6.00;82.40;;;;;;5074742;28;19912;-87
2022/01/27 14:37:57;;;;;;;;;;;6.10;82.50;;;;;;5076010;28;20473;-87
2022/01/27 14:40:23;;;;;;;;;;;6.10;82.40;;;;;;5069573;28;19927;-86
2022/01/27 14:42:49;;;;;;;;;;;6.10;82.50;;;;;;5072461;28;19920;-87
2022/01/27 14:45:18;;;;;;;;;;;6.20;82.20;;;;;;5075068;28;19919;-86
2022/01/27 14:47:43;;;;;;;;;;;6.40;82.00;;;;;;5071593;28;20435;-87
2022/01/27 14:50:10;;;;;;;;;;;6.40;81.60;;;;;;5070962;28;19921;-87
2022/01/27 14:52:37;;;;;;;;;;;6.40;81.70;;;;;;5072532;28;19915;-87
2022/01/27 14:55:03;;;;;;;;;;;6.40;81.20;;;;;;5075840;28;19928;-87
2022/01/27 14:57:28;;;;;;;;;;;6.40;80.80;;;;;;5083040;28;19912;-86
2022/01/27 14:59:54;;;;;;;;;;;6.20;81.40;;;;;;5078802;28;19958;-86
2022/01/27 15:02:20;;;;;;;;;;;6.10;81.60;;;;;;5084236;28;19999;-86
2022/01/27 15:04:46;;;;;;;;;;;6.00;81.60;;;;;;5076717;28;19951;-86
2022/01/27 15:07:11;;;;;;;;;;;5.90;81.60;;;;;;5073687;28;19919;-87
2022/01/27 15:09:37;;;;;;;;;;;5.90;82.60;;;;;;5077132;28;19963;-86
2022/01/27 15:12:03;;;;;;;;;;;5.90;83.00;;;;;;5073649;28;19912;-87